createdAt,value
2023-05-14T00:01:17.930Z,4.22
2023-05-14T00:03:44.746Z,7.55
2023-05-14T00:06:11.523Z,5.35
2023-05-14T00:08:38.172Z,5.68
2023-05-14T00:11:04.992Z,4.88
2023-05-14T00:13:31.707Z,4.80
2023-05-14T00:15:58.462Z,4.10
2023-05-14T00:18:25.222Z,5.25
2023-05-14T00:20:54.792Z,4.55
2023-05-14T00:23:22.753Z,4.82
2023-05-14T00:25:50.604Z,4.55
2023-05-14T00:28:17.628Z,4.50
2023-05-14T00:30:44.613Z,6.10
2023-05-14T00:33:11.287Z,5.35
2023-05-14T00:35:38.051Z,4.47
2023-05-14T00:38:04.759Z,4.70
2023-05-14T00:40:31.721Z,4.38
2023-05-14T00:42:58.356Z,4.00
2023-05-14T00:45:25.753Z,3.85
2023-05-14T00:47:53.733Z,5.60
2023-05-14T00:50:21.438Z,4.82
2023-05-14T00:52:48.868Z,4.07
2023-05-14T00:55:16.829Z,4.70
2023-05-14T00:57:43.930Z,4.13
2023-05-14T01:00:11.118Z,4.97
2023-05-14T01:02:38.188Z,5.18
2023-05-14T01:05:05.809Z,5.50
2023-05-14T01:08:18.383Z,5.60
2023-05-14T01:11:06.561Z,4.63
2023-05-14T01:14:10.840Z,4.65
2023-05-14T01:16:39.612Z,4.90
2023-05-14T01:19:17.469Z,4.13
2023-05-14T01:21:44.160Z,5.50
2023-05-14T01:24:10.830Z,4.57
2023-05-14T01:26:37.631Z,5.32
2023-05-14T01:29:19.854Z,5.63
2023-05-14T01:31:49.159Z,5.00
2023-05-14T01:34:20.279Z,5.38
2023-05-14T01:36:48.708Z,5.88
2023-05-14T01:39:16.269Z,4.30
2023-05-14T01:41:44.321Z,4.95
2023-05-14T01:44:11.608Z,5.70
2023-05-14T01:46:38.530Z,5.50
2023-05-14T01:49:05.313Z,4.85
2023-05-14T01:51:31.972Z,5.35
2023-05-14T01:53:58.754Z,4.40
2023-05-14T01:56:25.983Z,3.83
2023-05-14T01:58:53.062Z,5.00
2023-05-14T02:01:20.071Z,4.50
2023-05-14T02:03:46.834Z,3.67
2023-05-14T02:06:13.562Z,4.18
2023-05-14T02:08:40.224Z,4.82
2023-05-14T02:11:06.863Z,4.90
2023-05-14T02:13:33.748Z,4.88
2023-05-14T02:16:00.512Z,3.88
2023-05-14T02:18:27.216Z,3.90
2023-05-14T02:20:53.869Z,4.03
2023-05-14T02:23:25.683Z,4.72
2023-05-14T02:25:57.929Z,5.72
2023-05-14T02:28:24.695Z,4.15
2023-05-14T02:30:51.291Z,5.15
2023-05-14T02:33:18.115Z,4.03
2023-05-14T02:35:44.868Z,4.18
2023-05-14T02:38:12.155Z,4.47
2023-05-14T02:40:38.888Z,4.80
2023-05-14T02:43:06.249Z,5.10
2023-05-14T02:45:33.013Z,4.88
2023-05-14T02:47:59.784Z,5.63
2023-05-14T02:50:26.650Z,6.28
2023-05-14T02:52:53.357Z,5.63
2023-05-14T02:55:20.092Z,6.22
2023-05-14T02:57:46.947Z,4.70
2023-05-14T03:00:13.941Z,6.80
2023-05-14T03:02:41.099Z,4.32
2023-05-14T03:05:09.432Z,3.63
2023-05-14T03:07:36.179Z,4.95
2023-05-14T03:10:03.136Z,5.70
2023-05-14T03:12:29.895Z,5.72
2023-05-14T03:14:56.514Z,4.88
2023-05-14T03:17:23.172Z,4.53
2023-05-14T03:19:50.457Z,5.97
2023-05-14T03:22:17.248Z,4.28
2023-05-14T03:24:43.947Z,4.88
2023-05-14T03:27:10.724Z,4.97
2023-05-14T03:29:37.324Z,5.15
2023-05-14T03:32:04.440Z,4.47
2023-05-14T03:34:31.136Z,5.30
2023-05-14T03:36:57.828Z,4.97
2023-05-14T03:39:24.693Z,5.55
2023-05-14T03:41:51.473Z,4.78
2023-05-14T03:44:18.172Z,5.05
2023-05-14T03:46:44.896Z,4.93
2023-05-14T03:49:11.706Z,5.50
2023-05-14T03:51:38.366Z,4.30
2023-05-14T03:54:05.141Z,5.28
2023-05-14T03:56:31.915Z,5.32
2023-05-14T03:58:58.561Z,4.60
2023-05-14T04:01:25.212Z,5.85
2023-05-14T04:03:52.177Z,4.38
2023-05-14T04:06:19.592Z,4.97
2023-05-14T04:08:46.292Z,5.32
2023-05-14T04:11:13.003Z,5.07
2023-05-14T04:13:39.628Z,3.22
2023-05-14T04:16:06.454Z,5.30
2023-05-14T04:18:35.477Z,3.78
2023-05-14T04:21:03.166Z,3.92
2023-05-14T04:23:31.836Z,4.95
2023-05-14T04:25:59.080Z,5.00
2023-05-14T04:28:25.786Z,3.92
2023-05-14T04:30:52.668Z,4.15
2023-05-14T04:33:19.594Z,3.53
2023-05-14T04:35:46.915Z,5.13
2023-05-14T04:38:14.533Z,3.58
2023-05-14T04:40:44.347Z,4.53
2023-05-14T04:43:11.091Z,6.43
2023-05-14T04:45:37.857Z,5.25
2023-05-14T04:48:05.330Z,4.80
2023-05-14T04:50:32.251Z,4.93
2023-05-14T04:52:58.906Z,4.80
2023-05-14T04:55:25.662Z,4.47
2023-05-14T04:57:52.344Z,4.80
2023-05-14T05:00:22.109Z,5.28
2023-05-14T05:02:49.354Z,4.40
2023-05-14T05:05:16.132Z,4.60
2023-05-14T05:07:42.775Z,4.05
2023-05-14T05:10:09.789Z,4.82
2023-05-14T05:12:36.394Z,4.57
2023-05-14T05:15:03.623Z,4.03
2023-05-14T05:17:30.815Z,5.03
2023-05-14T05:19:57.570Z,5.00
2023-05-14T05:22:24.707Z,6.07
2023-05-14T05:24:51.366Z,5.25
2023-05-14T05:27:18.065Z,4.60
2023-05-14T05:29:45.031Z,4.55
2023-05-14T05:32:11.718Z,6.22
2023-05-14T05:34:38.559Z,4.68
2023-05-14T05:37:06.138Z,4.78
2023-05-14T05:39:35.289Z,5.90
2023-05-14T05:42:02.911Z,4.18
2023-05-14T05:44:29.684Z,4.40
2023-05-14T05:46:57.513Z,4.30
2023-05-14T05:49:24.306Z,3.90
2023-05-14T05:51:51.037Z,4.97
2023-05-14T05:54:17.818Z,4.63
2023-05-14T05:56:44.481Z,3.47
2023-05-14T05:59:11.149Z,3.15
2023-05-14T06:01:38.025Z,3.63
2023-05-14T06:04:06.414Z,3.33
2023-05-14T06:06:33.304Z,3.78
2023-05-14T06:09:01.938Z,3.97
2023-05-14T06:11:28.640Z,4.78
2023-05-14T06:13:55.360Z,3.58
2023-05-14T06:16:22.024Z,3.92
2023-05-14T06:18:48.850Z,2.70
2023-05-14T06:21:15.601Z,2.83
2023-05-14T06:23:42.249Z,2.67
2023-05-14T06:26:08.856Z,3.30
2023-05-14T06:28:35.507Z,3.30
2023-05-14T06:31:02.175Z,2.28
2023-05-14T06:33:31.722Z,2.42
2023-05-14T06:36:06.293Z,2.75
2023-05-14T06:38:33.392Z,2.47
2023-05-14T06:41:00.097Z,2.50
2023-05-14T06:43:26.808Z,2.25
2023-05-14T06:45:53.906Z,2.85
2023-05-14T06:48:20.832Z,2.20
2023-05-14T06:50:49.237Z,2.30
2023-05-14T06:53:16.366Z,2.35
2023-05-14T06:55:43.224Z,2.08
2023-05-14T06:58:10.041Z,2.00
2023-05-14T07:00:36.697Z,2.20
2023-05-14T07:03:03.687Z,2.00
2023-05-14T07:05:30.530Z,2.40
2023-05-14T07:07:57.284Z,2.20
2023-05-14T07:10:25.641Z,2.45
2023-05-14T07:12:52.777Z,2.20
2023-05-14T07:15:19.536Z,2.63
2023-05-14T07:17:46.394Z,2.60
2023-05-14T07:20:13.426Z,2.08
2023-05-14T07:22:40.095Z,1.92
2023-05-14T07:25:07.361Z,2.00
2023-05-14T07:27:34.136Z,1.98
2023-05-14T07:30:00.957Z,2.38
2023-05-14T07:32:27.664Z,2.60
2023-05-14T07:34:54.356Z,2.35
2023-05-14T07:37:24.097Z,2.55
2023-05-14T07:39:50.982Z,1.80
2023-05-14T07:42:28.314Z,2.20
2023-05-14T07:44:58.840Z,2.05
2023-05-14T07:47:25.652Z,2.00
2023-05-14T07:49:59.140Z,1.90
2023-05-14T07:52:25.911Z,1.88
2023-05-14T07:54:52.858Z,2.22
2023-05-14T07:57:20.739Z,2.63
2023-05-14T07:59:49.103Z,2.30
2023-05-14T08:02:17.174Z,2.70
2023-05-14T08:04:44.460Z,2.42
2023-05-14T08:07:11.281Z,2.42
2023-05-14T08:09:37.968Z,2.40
2023-05-14T08:12:05.061Z,2.13
2023-05-14T08:14:32.558Z,2.45
2023-05-14T08:16:59.488Z,2.53
2023-05-14T08:19:27.433Z,2.00
2023-05-14T08:21:54.215Z,2.28
2023-05-14T08:24:21.292Z,1.88
2023-05-14T08:26:50.272Z,2.65
2023-05-14T08:29:20.813Z,2.30
2023-05-14T08:31:49.192Z,1.83
2023-05-14T08:34:16.232Z,1.88
2023-05-14T08:36:42.974Z,1.60
2023-05-14T08:39:09.712Z,2.13
2023-05-14T08:41:37.590Z,2.60
2023-05-14T08:44:12.695Z,2.42
2023-05-14T08:46:40.486Z,2.30
2023-05-14T08:49:33.074Z,2.40
2023-05-14T08:52:00.653Z,1.75
2023-05-14T08:54:28.890Z,1.80
2023-05-14T08:56:56.494Z,2.47
2023-05-14T08:59:23.262Z,2.20
2023-05-14T09:01:53.928Z,1.80
2023-05-14T09:04:23.359Z,1.90
2023-05-14T09:06:51.824Z,2.10
2023-05-14T09:09:19.242Z,1.85
2023-05-14T09:11:47.393Z,2.28
2023-05-14T09:14:14.136Z,1.98
2023-05-14T09:16:42.813Z,1.73
2023-05-14T09:19:09.870Z,2.33
2023-05-14T09:21:37.191Z,2.55
2023-05-14T09:24:04.326Z,2.63
2023-05-14T09:26:33.205Z,2.75
2023-05-14T09:29:02.834Z,2.50
2023-05-14T09:31:32.141Z,2.70
2023-05-14T09:34:01.189Z,2.40
2023-05-14T09:36:28.423Z,2.67
2023-05-14T09:38:58.417Z,2.58
2023-05-14T09:41:25.777Z,2.70
2023-05-14T09:43:53.414Z,2.63
2023-05-14T09:46:20.757Z,3.22
2023-05-14T09:48:48.022Z,2.33
2023-05-14T09:51:14.897Z,2.38
2023-05-14T09:53:43.886Z,2.10
2023-05-14T09:56:14.357Z,2.15
2023-05-14T09:58:50.083Z,1.73
2023-05-14T10:01:22.069Z,1.67
2023-05-14T10:03:51.579Z,1.73
2023-05-14T10:06:25.665Z,1.60
2023-05-14T10:09:02.340Z,1.98
2023-05-14T10:11:34.237Z,1.70
2023-05-14T10:14:07.650Z,1.55
2023-05-14T10:16:38.711Z,1.70
2023-05-14T10:19:10.061Z,1.50
2023-05-14T10:21:38.506Z,1.42
2023-05-14T10:24:13.866Z,1.55
2023-05-14T10:26:42.703Z,1.50
2023-05-14T10:29:14.196Z,1.50
2023-05-14T10:31:51.167Z,1.63
2023-05-14T10:34:41.408Z,1.42
2023-05-14T10:37:10.115Z,1.30
2023-05-14T10:40:00.094Z,1.50
2023-05-14T10:42:30.460Z,1.58
2023-05-14T10:44:59.467Z,1.38
2023-05-14T10:47:29.433Z,1.30
2023-05-14T10:49:59.970Z,1.38
2023-05-14T10:52:36.818Z,1.20
2023-05-14T10:55:11.633Z,1.20
2023-05-14T10:57:40.848Z,1.10
2023-05-14T11:00:09.600Z,1.30
2023-05-14T11:02:39.397Z,1.00
2023-05-14T11:05:08.404Z,1.20
2023-05-14T11:07:44.836Z,1.17
2023-05-14T11:10:19.298Z,1.02
2023-05-14T11:12:49.133Z,1.13
2023-05-14T11:15:21.799Z,0.93
2023-05-14T11:17:50.576Z,1.10
2023-05-14T11:20:18.859Z,1.10
2023-05-14T11:22:47.299Z,0.95
2023-05-14T11:25:15.077Z,0.98
2023-05-14T11:27:44.176Z,0.90
2023-05-14T11:30:18.646Z,0.93
2023-05-14T11:32:52.010Z,0.80
2023-05-14T11:35:20.772Z,1.20
2023-05-14T11:37:52.879Z,1.30
2023-05-14T11:40:26.831Z,0.90
2023-05-14T11:42:58.171Z,0.95
2023-05-14T11:45:30.288Z,1.85
2023-05-14T11:47:57.582Z,1.87
2023-05-14T11:50:28.040Z,2.20
2023-05-14T11:52:58.363Z,2.60
2023-05-14T11:55:25.329Z,2.22
2023-05-14T11:57:53.532Z,2.17
2023-05-14T12:00:25.442Z,2.22
2023-05-14T12:02:56.311Z,2.13
2023-05-14T12:05:24.692Z,2.45
2023-05-14T12:07:52.581Z,2.13
2023-05-14T12:10:19.553Z,1.90
2023-05-14T12:12:48.831Z,2.03
2023-05-14T12:15:17.743Z,2.00
2023-05-14T12:17:50.949Z,2.40
2023-05-14T12:20:28.200Z,2.08
2023-05-14T12:22:58.936Z,2.75
2023-05-14T12:25:26.962Z,1.90
2023-05-14T12:27:54.187Z,1.90
2023-05-14T12:30:37.725Z,2.05
2023-05-14T12:33:04.471Z,2.28
2023-05-14T12:35:32.535Z,1.75
2023-05-14T12:37:59.171Z,1.65
2023-05-14T12:40:28.276Z,2.08
2023-05-14T12:42:58.126Z,2.38
2023-05-14T12:45:27.919Z,2.85
2023-05-14T12:47:56.034Z,2.13
2023-05-14T12:50:23.032Z,2.95
2023-05-14T12:52:49.862Z,5.22
2023-05-14T12:55:18.201Z,4.57
2023-05-14T12:57:46.521Z,4.47
2023-05-14T13:00:17.754Z,4.85
2023-05-14T13:02:45.336Z,7.68
2023-05-14T13:05:12.941Z,6.45
2023-05-14T13:07:40.852Z,8.07
2023-05-14T13:10:09.353Z,6.28
2023-05-14T13:12:43.235Z,7.45
2023-05-14T13:15:11.601Z,7.10
2023-05-14T13:17:41.131Z,5.15
2023-05-14T13:20:09.490Z,6.80
2023-05-14T13:22:37.562Z,4.97
2023-05-14T13:25:06.724Z,6.13
2023-05-14T13:27:36.503Z,5.78
2023-05-14T13:30:05.209Z,6.32
2023-05-14T13:32:32.692Z,4.80
2023-05-14T13:35:00.269Z,6.00
2023-05-14T13:37:28.884Z,3.90
2023-05-14T13:39:57.170Z,3.35
2023-05-14T13:42:36.591Z,3.83
2023-05-14T13:45:04.181Z,3.50
2023-05-14T13:47:31.705Z,2.60
2023-05-14T13:49:58.628Z,2.55
2023-05-14T13:52:25.789Z,2.50
2023-05-14T13:54:53.237Z,2.50
2023-05-14T13:57:20.220Z,2.05
2023-05-14T13:59:48.000Z,2.10
2023-05-14T14:02:15.985Z,1.73
2023-05-14T14:04:44.159Z,1.95
2023-05-14T14:07:11.436Z,2.33
2023-05-14T14:09:38.436Z,1.73
2023-05-14T14:12:06.258Z,2.45
2023-05-14T14:14:33.523Z,1.40
2023-05-14T14:17:01.101Z,0.90
2023-05-14T14:19:28.463Z,0.80
2023-05-14T14:21:56.662Z,0.60
2023-05-14T14:24:24.952Z,0.70
2023-05-14T14:26:52.301Z,0.90
2023-05-14T14:29:18.966Z,0.80
2023-05-14T14:31:46.259Z,0.73
2023-05-14T14:34:14.362Z,0.60
2023-05-14T14:36:41.638Z,0.70
2023-05-14T14:39:08.719Z,0.70
2023-05-14T14:41:40.299Z,0.70
2023-05-14T14:44:07.212Z,0.70
2023-05-14T14:46:34.365Z,0.70
2023-05-14T14:49:02.142Z,0.80
2023-05-14T14:51:30.414Z,1.13
2023-05-14T14:53:57.520Z,0.88
2023-05-14T14:56:28.261Z,1.00
2023-05-14T14:58:56.386Z,1.30
2023-05-14T15:01:23.756Z,0.90
2023-05-14T15:03:50.925Z,1.25
2023-05-14T15:06:17.953Z,1.10
2023-05-14T15:08:44.695Z,1.30
2023-05-14T15:11:11.533Z,1.08
2023-05-14T15:13:40.516Z,1.40
2023-05-14T15:16:08.092Z,1.33
2023-05-14T15:18:35.348Z,1.33
2023-05-14T15:21:02.194Z,1.50
2023-05-14T15:23:29.594Z,1.10
2023-05-14T15:25:56.996Z,1.20
2023-05-14T15:28:26.089Z,1.02
2023-05-14T15:30:53.015Z,1.05
2023-05-14T15:33:19.958Z,0.90
2023-05-14T15:35:47.157Z,0.90
2023-05-14T15:38:13.909Z,1.13
2023-05-14T15:40:41.132Z,1.35
2023-05-14T15:43:08.012Z,1.30
2023-05-14T15:45:35.033Z,1.27
2023-05-14T15:48:02.796Z,1.17
2023-05-14T15:50:30.281Z,1.60
2023-05-14T15:52:57.567Z,1.90
2023-05-14T15:55:25.013Z,1.98
2023-05-14T15:57:53.312Z,1.90
2023-05-14T16:00:21.357Z,1.50
2023-05-14T16:02:48.888Z,1.73
2023-05-14T16:05:15.749Z,2.35
2023-05-14T16:07:43.009Z,1.73
2023-05-14T16:10:09.872Z,1.73
2023-05-14T16:12:36.657Z,1.85
2023-05-14T16:15:03.779Z,1.98
2023-05-14T16:17:32.854Z,1.88
2023-05-14T16:20:00.920Z,1.95
2023-05-14T16:22:29.312Z,1.65
2023-05-14T16:24:56.126Z,1.60
2023-05-14T16:27:22.793Z,1.50
2023-05-14T16:29:49.567Z,1.75
2023-05-14T16:32:16.483Z,2.80
2023-05-14T16:34:49.683Z,2.88
2023-05-14T16:39:43.789Z,3.15
2023-05-14T16:42:10.806Z,2.47
2023-05-14T16:44:37.547Z,2.38
2023-05-14T16:47:04.792Z,2.13
2023-05-14T16:49:31.675Z,3.10
2023-05-14T16:51:58.336Z,2.40
2023-05-14T16:54:25.104Z,2.97
2023-05-14T16:56:52.072Z,3.03
2023-05-14T16:59:18.910Z,2.00
2023-05-14T17:01:46.541Z,1.80
2023-05-14T17:04:13.238Z,3.67
2023-05-14T17:06:39.925Z,3.85
2023-05-14T17:09:07.024Z,2.80
2023-05-14T17:11:33.898Z,3.10
2023-05-14T17:14:00.889Z,2.40
2023-05-14T17:16:30.103Z,1.90
2023-05-14T17:18:57.392Z,1.92
2023-05-14T17:21:24.191Z,2.65
2023-05-14T17:23:50.917Z,2.20
2023-05-14T17:26:17.788Z,1.60
2023-05-14T17:28:44.446Z,1.83
2023-05-14T17:31:11.181Z,2.20
2023-05-14T17:33:37.974Z,2.60
2023-05-14T17:36:04.879Z,2.78
2023-05-14T17:38:31.746Z,1.85
2023-05-14T17:40:59.620Z,3.58
2023-05-14T17:43:26.289Z,2.67
2023-05-14T17:45:54.717Z,2.50
2023-05-14T17:48:22.939Z,2.30
2023-05-14T17:50:51.313Z,2.22
2023-05-14T17:53:18.205Z,2.50
2023-05-14T17:55:44.970Z,1.98
2023-05-14T17:58:13.534Z,2.78
2023-05-14T18:00:40.796Z,2.50
2023-05-14T18:03:08.027Z,2.60
2023-05-14T18:05:34.859Z,2.92
2023-05-14T18:08:01.547Z,2.03
2023-05-14T18:10:29.684Z,1.95
2023-05-14T18:12:56.772Z,2.10
2023-05-14T18:15:25.814Z,2.00
2023-05-14T18:17:53.255Z,2.30
2023-05-14T18:20:20.306Z,2.58
2023-05-14T18:22:47.127Z,2.00
2023-05-14T18:25:14.637Z,2.42
2023-05-14T18:27:47.448Z,2.20
2023-05-14T18:30:15.486Z,2.72
2023-05-14T18:32:44.340Z,2.20
2023-05-14T18:35:12.359Z,2.85
2023-05-14T18:37:39.727Z,2.00
2023-05-14T18:40:07.137Z,2.47
2023-05-14T18:42:34.419Z,2.58
2023-05-14T18:45:01.842Z,2.60
2023-05-14T18:47:28.801Z,3.20
2023-05-14T18:49:58.128Z,2.40
2023-05-14T18:52:26.349Z,2.35
2023-05-14T18:54:53.884Z,2.63
2023-05-14T18:57:21.583Z,2.72
2023-05-14T18:59:48.609Z,3.35
2023-05-14T19:02:17.020Z,2.75
2023-05-14T19:04:52.287Z,2.58
2023-05-14T19:07:23.660Z,2.80
2023-05-14T19:09:51.710Z,1.73
2023-05-14T19:12:21.536Z,2.15
2023-05-14T19:14:49.250Z,2.63
2023-05-14T19:17:20.509Z,2.50
2023-05-14T19:19:48.473Z,2.70
2023-05-14T19:22:16.006Z,1.88
2023-05-14T19:24:43.571Z,2.72
2023-05-14T19:27:19.572Z,2.75
2023-05-14T19:29:50.308Z,2.53
2023-05-14T19:32:18.041Z,2.75
2023-05-14T19:34:46.171Z,2.28
2023-05-14T19:37:14.897Z,2.08
2023-05-14T19:39:42.593Z,2.15
2023-05-14T19:42:11.816Z,1.98
2023-05-14T19:44:40.021Z,2.10
2023-05-14T19:47:08.488Z,1.65
2023-05-14T19:49:36.727Z,1.90
2023-05-14T19:52:04.957Z,1.50
2023-05-14T19:54:33.087Z,2.80
2023-05-14T19:57:01.540Z,2.22
2023-05-14T19:59:30.677Z,2.28
2023-05-14T20:01:58.545Z,1.98
2023-05-14T20:04:26.667Z,2.20
2023-05-14T20:06:53.702Z,1.92
2023-05-14T20:09:20.692Z,2.45
2023-05-14T20:11:47.624Z,2.08
2023-05-14T20:14:14.530Z,1.85
2023-05-14T20:16:41.785Z,1.50
2023-05-14T20:19:08.750Z,1.75
2023-05-14T20:21:35.733Z,1.70
2023-05-14T20:24:03.550Z,1.55
2023-05-14T20:26:30.386Z,1.65
2023-05-14T20:28:57.050Z,1.58
2023-05-14T20:31:23.805Z,2.13
2023-05-14T20:33:52.694Z,1.75
2023-05-14T20:36:19.926Z,1.33
2023-05-14T20:38:47.804Z,1.48
2023-05-14T20:41:15.160Z,2.55
2023-05-14T20:43:41.837Z,1.80
2023-05-14T20:46:10.327Z,2.00
2023-05-14T20:48:37.028Z,2.17
2023-05-14T20:51:09.176Z,1.83
2023-05-14T20:53:39.177Z,1.58
2023-05-14T20:56:06.718Z,1.77
2023-05-14T20:58:34.232Z,1.73
2023-05-14T21:01:01.852Z,1.65
2023-05-14T21:03:28.746Z,1.58
2023-05-14T21:05:57.805Z,1.70
2023-05-14T21:08:24.604Z,1.30
2023-05-14T21:10:51.370Z,1.65
2023-05-14T21:13:18.113Z,1.98
2023-05-14T21:15:44.807Z,1.60
2023-05-14T21:18:12.095Z,1.92
2023-05-14T21:20:39.019Z,1.70
2023-05-14T21:23:05.683Z,1.55
2023-05-14T21:25:32.476Z,1.60
2023-05-14T21:27:59.076Z,1.63
2023-05-14T21:30:25.802Z,1.48
2023-05-14T21:32:52.675Z,2.17
2023-05-14T21:35:19.415Z,1.33
2023-05-14T21:37:46.146Z,2.05
2023-05-14T21:40:12.961Z,2.33
2023-05-14T21:42:40.802Z,1.67
2023-05-14T21:45:07.865Z,1.75
2023-05-14T21:47:34.732Z,1.85
2023-05-14T21:50:01.606Z,1.50
2023-05-14T21:52:28.365Z,1.75
2023-05-14T21:54:55.880Z,1.52
2023-05-14T21:57:22.913Z,1.55
2023-05-14T21:59:49.590Z,1.80
2023-05-14T22:02:16.340Z,1.40
2023-05-14T22:04:43.191Z,1.73
2023-05-14T22:07:09.960Z,2.05
2023-05-14T22:09:36.624Z,2.05
2023-05-14T22:12:03.392Z,1.58
2023-05-14T22:14:30.288Z,1.65
2023-05-14T22:16:57.036Z,1.60
2023-05-14T22:19:23.768Z,1.20
2023-05-14T22:21:50.884Z,1.40
2023-05-14T22:24:17.571Z,2.20
2023-05-14T22:26:44.496Z,2.10
2023-05-14T22:29:11.244Z,2.60
2023-05-14T22:31:40.411Z,1.70
2023-05-14T22:34:07.127Z,1.42
2023-05-14T22:36:34.022Z,1.70
2023-05-14T22:39:01.050Z,1.20
2023-05-14T22:41:27.815Z,1.45
2023-05-14T22:43:54.456Z,1.45
2023-05-14T22:46:21.420Z,1.30
2023-05-14T22:48:49.377Z,1.50
2023-05-14T22:51:16.482Z,1.40
2023-05-14T22:53:43.206Z,1.23
2023-05-14T22:56:09.916Z,1.15
2023-05-14T22:58:36.552Z,1.50
2023-05-14T23:01:03.549Z,1.73
2023-05-14T23:03:30.343Z,1.45
2023-05-14T23:05:57.040Z,1.50
2023-05-14T23:08:23.703Z,2.30
2023-05-14T23:10:50.621Z,1.40
2023-05-14T23:13:17.340Z,1.50
2023-05-14T23:15:44.228Z,1.52
2023-05-14T23:18:11.033Z,1.90
2023-05-14T23:20:37.753Z,1.90
2023-05-14T23:23:05.289Z,1.45
2023-05-14T23:25:32.440Z,1.55
2023-05-14T23:27:59.258Z,1.83
2023-05-14T23:30:26.070Z,1.90
2023-05-14T23:32:53.212Z,1.67
2023-05-14T23:35:19.957Z,1.50
2023-05-14T23:37:49.555Z,1.58
2023-05-14T23:40:16.407Z,1.77
2023-05-14T23:42:44.351Z,1.80
2023-05-14T23:45:12.337Z,2.50
2023-05-14T23:47:39.366Z,2.60
2023-05-14T23:50:06.624Z,1.52
2023-05-14T23:52:33.804Z,1.85
2023-05-14T23:55:00.703Z,1.95
2023-05-14T23:57:27.579Z,2.20
2023-05-14T23:59:54.356Z,1.90
